TimeCDT,TemperatureF,Dew PointF,Humidity,Sea Level PressureIn,VisibilityMPH,Wind Direction,Wind SpeedMPH,Gust SpeedMPH,PrecipitationIn,Events,Conditions,WindDirDegrees,DateUTC
12:15 AM,41.0,39.2,93,29.99,10.0,Calm,Calm,-,N/A,,Clear,0,2013-09-22 05:15:00
12:35 AM,39.2,37.4,93,30.00,10.0,Calm,Calm,-,N/A,,Clear,0,2013-09-22 05:35:00
12:55 AM,37.4,37.4,100,30.00,10.0,Calm,Calm,-,N/A,,Clear,0,2013-09-22 05:55:00
1:15 AM,39.2,37.4,93,30.01,10.0,Calm,Calm,-,N/A,,Clear,0,2013-09-22 06:15:00
1:35 AM,39.2,37.4,93,30.01,10.0,Calm,Calm,-,N/A,,Clear,0,2013-09-22 06:35:00
1:55 AM,37.4,37.4,100,30.01,7.0,Calm,Calm,-,N/A,,Clear,0,2013-09-22 06:55:00
2:15 AM,37.4,37.4,100,30.01,10.0,Calm,Calm,-,N/A,,Clear,0,2013-09-22 07:15:00
2:35 AM,37.4,37.4,100,30.02,10.0,Calm,Calm,-,N/A,,Clear,0,2013-09-22 07:35:00
2:55 AM,37.4,35.6,93,30.02,10.0,Calm,Calm,-,N/A,,Clear,0,2013-09-22 07:55:00
3:15 AM,37.4,35.6,93,30.03,10.0,Calm,Calm,-,N/A,,Clear,0,2013-09-22 08:15:00
3:35 AM,35.6,35.6,100,30.03,10.0,Calm,Calm,-,N/A,,Clear,0,2013-09-22 08:35:00
3:55 AM,37.4,35.6,93,30.03,10.0,Calm,Calm,-,N/A,,Clear,0,2013-09-22 08:55:00
4:15 AM,35.6,35.6,100,30.03,10.0,Calm,Calm,-,N/A,,Clear,0,2013-09-22 09:15:00
4:35 AM,35.6,35.6,100,30.03,10.0,NE,3.5,-,N/A,,Clear,40,2013-09-22 09:35:00
4:55 AM,35.6,35.6,100,30.04,10.0,Calm,Calm,-,N/A,,Clear,0,2013-09-22 09:55:00
5:15 AM,35.6,35.6,100,30.05,10.0,Calm,Calm,-,N/A,,Clear,0,2013-09-22 10:15:00
5:35 AM,35.6,35.6,100,30.05,10.0,Calm,Calm,-,N/A,,Clear,0,2013-09-22 10:35:00
5:55 AM,35.6,33.8,93,30.05,10.0,Calm,Calm,-,N/A,,Clear,0,2013-09-22 10:55:00
6:15 AM,35.6,33.8,93,30.05,10.0,Calm,Calm,-,N/A,,Clear,0,2013-09-22 11:15:00
6:35 AM,35.6,33.8,93,30.06,10.0,NNE,3.5,-,N/A,,Clear,30,2013-09-22 11:35:00
6:55 AM,33.8,33.8,100,30.06,10.0,NNE,3.5,-,N/A,,Clear,30,2013-09-22 11:55:00
7:15 AM,35.6,35.6,100,30.06,10.0,Calm,Calm,-,N/A,,Clear,0,2013-09-22 12:15:00
7:35 AM,37.4,35.6,93,30.07,10.0,Calm,Calm,-,N/A,,Clear,0,2013-09-22 12:35:00
7:55 AM,39.2,37.4,93,30.07,10.0,Calm,Calm,-,N/A,,Clear,0,2013-09-22 12:55:00
8:15 AM,41.0,39.2,93,30.08,10.0,NE,3.5,-,N/A,,Clear,40,2013-09-22 13:15:00
8:35 AM,42.8,41.0,93,30.09,10.0,Calm,Calm,-,N/A,,Clear,0,2013-09-22 13:35:00
8:55 AM,44.6,41.0,87,30.09,10.0,Calm,Calm,-,N/A,,Clear,0,2013-09-22 13:55:00
9:15 AM,46.4,41.0,81,30.10,10.0,North,3.5,-,N/A,,Clear,360,2013-09-22 14:15:00
9:35 AM,48.2,39.2,71,30.10,10.0,ENE,4.6,-,N/A,,Clear,60,2013-09-22 14:35:00
9:55 AM,50.0,39.2,66,30.10,10.0,NE,3.5,-,N/A,,Clear,50,2013-09-22 14:55:00
10:15 AM,51.8,37.4,58,30.10,10.0,East,4.6,-,N/A,,Clear,90,2013-09-22 15:15:00
10:35 AM,51.8,37.4,58,30.11,10.0,NNE,4.6,-,N/A,,Clear,20,2013-09-22 15:35:00
10:55 AM,51.8,37.4,58,30.11,10.0,NNE,4.6,-,N/A,,Clear,20,2013-09-22 15:55:00
11:15 AM,51.8,37.4,58,30.10,10.0,ENE,5.8,-,N/A,,Scattered Clouds,70,2013-09-22 16:15:00
11:35 AM,53.6,37.4,54,30.10,10.0,East,5.8,-,N/A,,Mostly Cloudy,100,2013-09-22 16:35:00
11:55 AM,53.6,37.4,54,30.10,10.0,Calm,Calm,-,N/A,,Scattered Clouds,0,2013-09-22 16:55:00
12:15 PM,53.6,37.4,54,30.09,10.0,SE,3.5,-,N/A,,Scattered Clouds,140,2013-09-22 17:15:00
12:35 PM,55.4,37.4,51,30.09,10.0,NE,5.8,-,N/A,,Scattered Clouds,50,2013-09-22 17:35:00
12:55 PM,55.4,37.4,51,30.08,10.0,NNE,5.8,-,N/A,,Overcast,30,2013-09-22 17:55:00
1:15 PM,55.4,37.4,51,30.08,10.0,NNE,3.5,-,N/A,,Scattered Clouds,20,2013-09-22 18:15:00
1:35 PM,53.6,37.4,54,30.07,10.0,ENE,3.5,-,N/A,,Clear,60,2013-09-22 18:35:00
1:55 PM,55.4,39.2,54,30.07,10.0,East,3.5,-,N/A,,Clear,90,2013-09-22 18:55:00
2:15 PM,57.2,39.2,51,30.06,10.0,SE,3.5,-,N/A,,Scattered Clouds,130,2013-09-22 19:15:00
2:35 PM,59.0,39.2,48,30.06,10.0,SE,6.9,-,N/A,,Mostly Cloudy,130,2013-09-22 19:35:00
2:55 PM,57.2,41.0,55,30.06,10.0,ENE,6.9,-,N/A,,Scattered Clouds,60,2013-09-22 19:55:00
3:15 PM,59.0,39.2,48,30.05,10.0,ENE,5.8,-,N/A,,Clear,60,2013-09-22 20:15:00
3:35 PM,59.0,41.0,51,30.05,10.0,East,3.5,-,N/A,,Clear,90,2013-09-22 20:35:00
3:55 PM,59.0,41.0,51,30.04,10.0,ESE,4.6,-,N/A,,Clear,120,2013-09-22 20:55:00
4:15 PM,59.0,41.0,51,30.04,10.0,SE,6.9,-,N/A,,Clear,130,2013-09-22 21:15:00
4:35 PM,59.0,41.0,51,30.04,10.0,SSE,4.6,-,N/A,,Clear,160,2013-09-22 21:35:00
4:55 PM,57.2,41.0,55,30.04,10.0,East,4.6,-,N/A,,Clear,100,2013-09-22 21:55:00
5:15 PM,59.0,41.0,51,30.03,10.0,East,4.6,-,N/A,,Clear,90,2013-09-22 22:15:00
5:35 PM,57.2,41.0,55,30.04,10.0,SE,8.1,-,N/A,,Clear,130,2013-09-22 22:35:00
5:55 PM,55.4,42.8,63,30.04,10.0,ESE,5.8,-,N/A,,Clear,120,2013-09-22 22:55:00
6:15 PM,53.6,42.8,67,30.04,10.0,ESE,8.1,-,N/A,,Clear,110,2013-09-22 23:15:00
6:35 PM,51.8,42.8,71,30.05,10.0,ESE,5.8,-,N/A,,Clear,120,2013-09-22 23:35:00
6:55 PM,50.0,42.8,76,30.05,10.0,ESE,5.8,-,N/A,,Clear,110,2013-09-22 23:55:00
7:15 PM,48.2,41.0,76,30.05,10.0,ESE,4.6,-,N/A,,Clear,110,2013-09-23 00:15:00
7:35 PM,46.4,41.0,81,30.06,10.0,ESE,5.8,-,N/A,,Clear,110,2013-09-23 00:35:00
7:55 PM,46.4,41.0,81,30.06,10.0,ESE,4.6,-,N/A,,Clear,110,2013-09-23 00:55:00
8:15 PM,44.6,41.0,87,30.07,10.0,ESE,3.5,-,N/A,,Clear,120,2013-09-23 01:15:00
8:35 PM,44.6,41.0,87,30.07,10.0,ESE,3.5,-,N/A,,Clear,110,2013-09-23 01:35:00
8:55 PM,44.6,41.0,87,30.08,10.0,SE,3.5,-,N/A,,Clear,130,2013-09-23 01:55:00
9:15 PM,44.6,41.0,87,30.08,10.0,Calm,Calm,-,N/A,,Clear,0,2013-09-23 02:15:00
9:35 PM,44.6,41.0,87,30.09,10.0,Calm,Calm,-,N/A,,Clear,0,2013-09-23 02:35:00
9:55 PM,42.8,41.0,93,30.09,10.0,Calm,Calm,-,N/A,,Clear,0,2013-09-23 02:55:00
10:15 PM,42.8,41.0,93,30.09,10.0,Calm,Calm,-,N/A,,Clear,0,2013-09-23 03:15:00
10:35 PM,41.0,39.2,93,30.09,10.0,Calm,Calm,-,N/A,,Clear,0,2013-09-23 03:35:00
10:55 PM,41.0,41.0,100,30.09,10.0,Calm,Calm,-,N/A,,Clear,0,2013-09-23 03:55:00
11:15 PM,41.0,39.2,93,30.09,10.0,Calm,Calm,-,N/A,,Clear,0,2013-09-23 04:15:00
11:35 PM,39.2,37.4,93,30.09,10.0,Calm,Calm,-,N/A,,Clear,0,2013-09-23 04:35:00
11:55 PM,39.2,37.4,93,30.09,10.0,Calm,Calm,-,N/A,,Clear,0,2013-09-23 04:55:00